Guthrie, Kentucky
Current Conditions -  °F | °C
As of 6:06 AM on Thursday 23 Oct 2014 (Local Time) from KCKV Reporting Station
Moderate Fog Moderate Fog  
Wind Chill: 35°   Ceiling: Unl
Heat Index: 35°   Visibility: 0.25mi
Dew Point: 34°   Wind: 3mph
Humidity: 96%   Direction: 80°E
Pressure: 30.23"   Gusts: NA
Location:  36.65°N, 87.17°W
Report Text: KCKV 231106Z AUTO 08003KT 1/4SM FG CLR 02/01 A3023 RMK AO2 T00170011
Loading
Personal Weather Stations






























Interactive Weather Map
Tropical Storm Tracking
New forecast layout! Learn more

10-Day Weather Forecast

Advertisements
Track Severe Weather on mobile